Time;durP1;ratioP1;P1;durP2;ratioP2;P2;SDS_P1;SDS_P2;PMS_P1;PMS_P2;Temp;Humidity;BMP_temperature;BMP_pressure;BME280_temperature;BME280_humidity;BME280_pressure;Samples;Min_cycle;Max_cycle;Signal;HPM_P1;HPM_P2
2021/12/16 00:11:12;;;;;;;85.67;40.13;;;;;;;;;;5089300;28;20111;-71
2021/12/16 00:19:50;;;;;;;85.50;38.93;;;;;;;;;;5081538;28;20060;-70
2021/12/16 00:35:41;;;;;;;112.53;46.03;;;;;;;;;;5060830;28;20131;-71
2021/12/16 00:38:07;;;;;;;91.53;43.07;;;;;;;;;;5084302;28;20501;-71
2021/12/16 00:40:34;;;;;;;95.83;44.17;;;;;;;;;;5080852;28;20044;-71
2021/12/16 00:43:13;;;;;;;100.27;45.30;;;;;;;;;;5068372;28;20170;-70
2021/12/16 00:48:23;;;;;;;122.10;49.00;;;;;;;;;;5073222;28;20516;-70
2021/12/16 00:56:05;;;;;;;104.70;44.37;;;;;;;;;;5062601;28;20044;-71
2021/12/16 00:58:41;;;;;;;107.00;50.03;;;;;;;;;;5071062;28;20056;-70
2021/12/16 01:06:33;;;;;;;100.67;46.37;;;;;;;;;;5070003;28;20050;-70
2021/12/16 01:09:55;;;;;;;105.77;46.70;;;;;;;;;;5085554;28;20502;-70
2021/12/16 01:47:16;;;;;;;156.40;57.13;;;;;;;;;;5088046;28;20088;-71
2021/12/16 01:49:53;;;;;;;121.53;50.83;;;;;;;;;;5076770;28;20445;-71
2021/12/16 01:55:13;;;;;;;135.03;54.93;;;;;;;;;;5073326;28;20444;-71
2021/12/16 01:57:47;;;;;;;162.03;58.77;;;;;;;;;;5070056;28;20079;-71
2021/12/16 02:00:17;;;;;;;136.60;54.17;;;;;;;;;;5062306;28;20040;-71
2021/12/16 02:02:48;;;;;;;146.37;56.70;;;;;;;;;;5069856;28;20053;-71
2021/12/16 02:05:54;;;;;;;128.70;51.90;;;;;;;;;;5070355;28;20055;-70
2021/12/16 02:08:24;;;;;;;176.97;59.63;;;;;;;;;;5072804;28;20870;-70
2021/12/16 02:37:32;;;;;;;142.20;54.37;;;;;;;;;;5087681;28;20127;-71
2021/12/16 02:39:58;;;;;;;142.87;51.50;;;;;;;;;;5079805;28;20036;-71
2021/12/16 02:42:35;;;;;;;161.97;55.30;;;;;;;;;;5068678;28;20480;-71
2021/12/16 02:50:16;;;;;;;124.07;49.30;;;;;;;;;;5063958;28;20052;-71
2021/12/16 02:52:45;;;;;;;135.27;50.27;;;;;;;;;;5083052;28;20071;-71
2021/12/16 02:55:12;;;;;;;127.43;48.43;;;;;;;;;;5079673;28;20037;-71
2021/12/16 02:57:47;;;;;;;110.27;46.23;;;;;;;;;;5087666;28;20051;-72
2021/12/16 03:00:15;;;;;;;91.90;41.63;;;;;;;;;;5091846;28;20079;-71
2021/12/16 03:02:42;;;;;;;96.17;43.77;;;;;;;;;;5090843;28;20109;-71
2021/12/16 03:05:09;;;;;;;95.87;43.80;;;;;;;;;;5083235;28;20045;-71
2021/12/16 03:07:36;;;;;;;94.73;44.30;;;;;;;;;;5088116;28;20126;-71
2021/12/16 03:15:35;;;;;;;109.67;44.27;;;;;;;;;;5062344;28;20045;-71
2021/12/16 03:18:19;;;;;;;105.80;45.07;;;;;;;;;;5072098;28;20781;-72
2021/12/16 03:20:57;;;;;;;120.53;45.33;;;;;;;;;;5067176;28;20402;-71
2021/12/16 03:38:49;;;;;;;108.27;45.00;;;;;;;;;;5056973;28;20052;-71
2021/12/16 03:41:15;;;;;;;92.13;41.93;;;;;;;;;;5059615;28;20063;-72
2021/12/16 03:43:41;;;;;;;89.07;40.70;;;;;;;;;;5059724;28;20111;-71
2021/12/16 03:48:52;;;;;;;97.53;41.20;;;;;;;;;;5077974;28;20047;-72
2021/12/16 03:51:39;;;;;;;92.13;38.63;;;;;;;;;;5067063;28;20076;-71
2021/12/16 03:54:10;;;;;;;85.83;40.13;;;;;;;;;;5078778;28;20040;-71
2021/12/16 03:56:37;;;;;;;94.63;40.50;;;;;;;;;;5075695;28;20064;-71
2021/12/16 03:59:03;;;;;;;87.97;40.33;;;;;;;;;;5060432;28;20079;-71
2021/12/16 04:01:30;;;;;;;87.73;38.60;;;;;;;;;;5074959;28;20045;-71
2021/12/16 04:03:57;;;;;;;88.93;39.83;;;;;;;;;;5077139;28;20051;-71
2021/12/16 04:06:23;;;;;;;80.97;37.50;;;;;;;;;;5077237;28;20044;-72
2021/12/16 04:08:52;;;;;;;84.87;38.73;;;;;;;;;;5079498;28;20093;-72
2021/12/16 04:11:22;;;;;;;82.43;36.93;;;;;;;;;;5079896;28;20086;-71
2021/12/16 04:13:55;;;;;;;78.73;38.33;;;;;;;;;;5083235;28;20044;-71
2021/12/16 04:16:22;;;;;;;81.17;39.77;;;;;;;;;;5064449;28;20798;-71
2021/12/16 04:18:48;;;;;;;83.33;38.07;;;;;;;;;;5079505;28;20053;-71
2021/12/16 04:21:15;;;;;;;83.57;39.43;;;;;;;;;;5078970;28;20490;-71
2021/12/16 04:23:41;;;;;;;86.67;37.87;;;;;;;;;;5088534;28;20052;-71
2021/12/16 04:26:08;;;;;;;79.87;37.93;;;;;;;;;;5089481;28;20079;-72
2021/12/16 04:28:34;;;;;;;88.23;38.43;;;;;;;;;;5089220;28;20156;-71
2021/12/16 04:31:00;;;;;;;88.37;40.90;;;;;;;;;;5089522;28;20130;-71
2021/12/16 04:33:28;;;;;;;75.30;36.03;;;;;;;;;;5089581;28;20569;-71
2021/12/16 04:35:54;;;;;;;86.10;38.70;;;;;;;;;;5083676;28;20428;-71
2021/12/16 04:38:20;;;;;;;79.63;39.23;;;;;;;;;;5088893;28;20047;-71
2021/12/16 04:40:48;;;;;;;81.53;36.33;;;;;;;;;;5088369;28;20490;-72
2021/12/16 04:43:20;;;;;;;94.70;38.13;;;;;;;;;;5070367;28;20052;-71
2021/12/16 04:45:46;;;;;;;83.03;37.93;;;;;;;;;;5070322;28;20048;-72
2021/12/16 04:48:12;;;;;;;83.07;37.33;;;;;;;;;;5082761;28;20044;-71
2021/12/16 04:50:39;;;;;;;85.63;38.03;;;;;;;;;;5067148;28;20051;-72
2021/12/16 04:53:05;;;;;;;83.67;37.27;;;;;;;;;;5079725;28;20068;-71
2021/12/16 04:55:31;;;;;;;83.17;36.83;;;;;;;;;;5061515;28;20136;-71
2021/12/16 04:57:57;;;;;;;79.23;36.70;;;;;;;;;;5087603;28;20043;-71
2021/12/16 05:00:24;;;;;;;86.77;38.83;;;;;;;;;;5070176;28;20581;-71
2021/12/16 05:02:51;;;;;;;78.83;37.27;;;;;;;;;;5043612;28;20048;-71
2021/12/16 05:05:18;;;;;;;79.03;37.53;;;;;;;;;;5085932;28;20043;-72
2021/12/16 05:07:47;;;;;;;86.43;38.17;;;;;;;;;;5068693;28;20043;-72
2021/12/16 05:10:14;;;;;;;84.60;37.23;;;;;;;;;;5070191;28;20122;-71
2021/12/16 05:12:42;;;;;;;89.13;38.17;;;;;;;;;;5070182;28;20077;-71
2021/12/16 05:15:13;;;;;;;78.13;36.93;;;;;;;;;;5088018;28;20092;-71
2021/12/16 05:17:43;;;;;;;86.17;36.80;;;;;;;;;;5087656;28;20054;-71
2021/12/16 05:20:11;;;;;;;83.87;36.33;;;;;;;;;;5087771;28;20060;-71
2021/12/16 05:25:39;;;;;;;74.10;34.60;;;;;;;;;;5086357;28;20726;-71
2021/12/16 05:28:05;;;;;;;89.17;38.80;;;;;;;;;;5060124;28;20393;-71
2021/12/16 05:30:32;;;;;;;73.73;35.77;;;;;;;;;;5075087;28;20055;-71
2021/12/16 05:32:58;;;;;;;79.93;37.63;;;;;;;;;;5079194;28;20040;-72
2021/12/16 05:35:25;;;;;;;91.20;38.13;;;;;;;;;;5057951;28;20125;-72
2021/12/16 05:37:51;;;;;;;78.77;35.80;;;;;;;;;;5073918;28;20388;-71
2021/12/16 05:40:19;;;;;;;85.70;37.93;;;;;;;;;;5074189;28;20453;-71
2021/12/16 05:42:45;;;;;;;87.27;37.47;;;;;;;;;;5060521;28;20044;-72
2021/12/16 05:45:12;;;;;;;79.80;37.33;;;;;;;;;;5059824;28;20048;-71
2021/12/16 05:47:38;;;;;;;88.00;39.20;;;;;;;;;;5076005;28;20501;-71
2021/12/16 05:50:06;;;;;;;72.10;35.63;;;;;;;;;;5062729;28;20439;-71
2021/12/16 05:52:32;;;;;;;77.00;36.47;;;;;;;;;;5078838;28;20048;-72
2021/12/16 05:54:58;;;;;;;81.17;37.07;;;;;;;;;;5042437;28;20059;-72
2021/12/16 05:57:24;;;;;;;88.97;38.53;;;;;;;;;;5061108;28;20574;-71
2021/12/16 05:59:50;;;;;;;99.77;39.87;;;;;;;;;;5059433;28;20056;-71
2021/12/16 06:02:16;;;;;;;101.20;38.63;;;;;;;;;;5080090;28;20049;-71
2021/12/16 06:04:42;;;;;;;96.00;40.87;;;;;;;;;;5079240;28;20502;-71
2021/12/16 06:07:09;;;;;;;85.97;37.43;;;;;;;;;;5080633;28;20050;-71
2021/12/16 06:09:35;;;;;;;110.60;41.10;;;;;;;;;;5075093;28;20336;-71
2021/12/16 06:12:01;;;;;;;113.70;42.17;;;;;;;;;;5081132;28;20052;-71
2021/12/16 06:14:46;;;;;;;90.90;37.60;;;;;;;;;;5079669;28;20047;-71
2021/12/16 06:26:24;;;;;;;88.53;38.23;;;;;;;;;;5059405;28;20387;-71
2021/12/16 06:28:18;;;;;;;123.57;43.77;;;;;;;;;;5067239;28;20504;-71
2021/12/16 06:30:44;;;;;;;79.83;36.27;;;;;;;;;;5084363;28;20043;-71
2021/12/16 06:33:13;;;;;;;89.87;38.43;;;;;;;;;;5080023;28;20456;-71
2021/12/16 06:35:39;;;;;;;91.70;38.53;;;;;;;;;;5079175;28;20033;-71
2021/12/16 06:38:05;;;;;;;87.10;37.50;;;;;;;;;;5062571;28;20040;-71
2021/12/16 06:40:32;;;;;;;74.93;35.17;;;;;;;;;;5064465;28;20410;-72
2021/12/16 06:43:00;;;;;;;101.90;38.83;;;;;;;;;;5062811;28;20044;-71
2021/12/16 06:45:30;;;;;;;88.40;37.80;;;;;;;;;;5063835;28;20405;-71
2021/12/16 06:48:04;;;;;;;83.17;35.83;;;;;;;;;;5084530;28;20122;-71
2021/12/16 06:50:52;;;;;;;85.53;37.93;;;;;;;;;;5065285;28;20091;-71
2021/12/16 06:53:29;;;;;;;88.73;37.83;;;;;;;;;;5080603;28;20119;-71
2021/12/16 06:56:06;;;;;;;98.57;38.40;;;;;;;;;;5079942;28;20044;-71
2021/12/16 06:58:42;;;;;;;80.60;36.03;;;;;;;;;;5063784;28;20056;-71
2021/12/16 07:01:19;;;;;;;77.07;35.13;;;;;;;;;;5082910;28;20408;-71
2021/12/16 07:03:49;;;;;;;89.37;38.40;;;;;;;;;;5082564;28;20044;-71
2021/12/16 07:06:17;;;;;;;91.10;37.87;;;;;;;;;;5062180;28;20040;-71
2021/12/16 07:08:43;;;;;;;85.70;37.63;;;;;;;;;;5061289;28;20085;-71
2021/12/16 07:11:09;;;;;;;97.60;37.47;;;;;;;;;;5084787;28;20043;-71
2021/12/16 07:13:40;;;;;;;96.43;39.20;;;;;;;;;;5081109;28;20040;-71
2021/12/16 07:16:06;;;;;;;98.73;38.87;;;;;;;;;;5084180;28;20466;-71
2021/12/16 07:18:32;;;;;;;99.07;40.63;;;;;;;;;;5065719;28;20080;-71
2021/12/16 07:20:59;;;;;;;111.53;41.20;;;;;;;;;;5064080;28;20040;-72
2021/12/16 07:23:25;;;;;;;105.13;41.40;;;;;;;;;;5065279;28;20044;-71
2021/12/16 07:25:52;;;;;;;118.70;42.37;;;;;;;;;;5064450;28;20068;-72
2021/12/16 07:28:18;;;;;;;113.77;43.63;;;;;;;;;;5081174;28;20269;-71
2021/12/16 07:30:45;;;;;;;123.40;46.10;;;;;;;;;;5072048;28;20040;-71
2021/12/16 07:33:12;;;;;;;151.80;49.67;;;;;;;;;;5091073;28;20429;-71
2021/12/16 07:35:40;;;;;;;151.87;49.00;;;;;;;;;;5072454;28;20048;-71
2021/12/16 07:38:06;;;;;;;168.90;51.47;;;;;;;;;;5072294;28;20144;-71
2021/12/16 07:40:33;;;;;;;134.90;45.57;;;;;;;;;;5066285;28;20426;-71
2021/12/16 07:43:12;;;;;;;130.07;48.93;;;;;;;;;;5062510;28;20052;-71
2021/12/16 07:45:43;;;;;;;163.23;51.40;;;;;;;;;;5067858;28;20052;-71
2021/12/16 07:48:10;;;;;;;137.43;48.13;;;;;;;;;;5071640;28;20047;-72
2021/12/16 07:50:36;;;;;;;134.70;49.53;;;;;;;;;;5071541;28;20043;-72
2021/12/16 07:53:02;;;;;;;164.77;53.30;;;;;;;;;;5072231;28;20044;-71
2021/12/16 07:55:29;;;;;;;159.97;55.40;;;;;;;;;;5078307;28;20039;-71
2021/12/16 07:57:55;;;;;;;169.73;56.83;;;;;;;;;;5071392;28;20051;-71
2021/12/16 08:00:23;;;;;;;189.47;57.67;;;;;;;;;;5075141;28;20498;-72
2021/12/16 08:02:49;;;;;;;279.50;70.10;;;;;;;;;;5067117;28;20035;-72
2021/12/16 08:05:16;;;;;;;318.67;72.63;;;;;;;;;;5062078;28;20094;-71
2021/12/16 08:07:42;;;;;;;400.33;83.50;;;;;;;;;;5087232;28;20050;-71
2021/12/16 08:10:12;;;;;;;401.13;79.30;;;;;;;;;;5078125;28;20555;-72
2021/12/16 08:12:38;;;;;;;508.03;91.37;;;;;;;;;;5058206;28;20046;-71
2021/12/16 08:15:05;;;;;;;545.07;97.20;;;;;;;;;;5073025;28;20032;-71
2021/12/16 08:17:31;;;;;;;585.57;96.70;;;;;;;;;;5069983;28;20057;-71
2021/12/16 08:19:57;;;;;;;672.37;106.60;;;;;;;;;;5072922;28;20040;-71
2021/12/16 08:22:23;;;;;;;635.10;101.07;;;;;;;;;;5087784;28;20414;-72
2021/12/16 08:24:49;;;;;;;746.40;112.00;;;;;;;;;;5082596;28;20041;-72
2021/12/16 08:27:17;;;;;;;521.23;87.80;;;;;;;;;;5063388;28;20494;-71
2021/12/16 08:29:43;;;;;;;684.57;112.80;;;;;;;;;;5085901;28;20043;-71
2021/12/16 08:32:09;;;;;;;635.30;99.37;;;;;;;;;;5071736;28;20135;-71
2021/12/16 08:34:38;;;;;;;640.10;96.13;;;;;;;;;;5084273;28;20044;-72
2021/12/16 08:37:06;;;;;;;685.40;105.70;;;;;;;;;;5067862;28;20048;-72
2021/12/16 08:39:32;;;;;;;621.83;99.40;;;;;;;;;;5069144;28;20048;-72
2021/12/16 08:41:59;;;;;;;596.13;95.00;;;;;;;;;;5068880;28;20574;-72
2021/12/16 08:44:25;;;;;;;578.10;91.70;;;;;;;;;;5068981;28;20048;-72
2021/12/16 08:46:54;;;;;;;650.90;105.07;;;;;;;;;;5072564;28;20440;-72
2021/12/16 08:49:20;;;;;;;626.33;102.03;;;;;;;;;;5082887;28;20052;-72
2021/12/16 08:51:50;;;;;;;532.50;91.40;;;;;;;;;;5046625;28;20048;-72
2021/12/16 08:54:17;;;;;;;583.30;91.90;;;;;;;;;;5075826;28;20040;-71
2021/12/16 08:56:44;;;;;;;510.43;86.33;;;;;;;;;;5056555;28;20132;-72
2021/12/16 08:59:10;;;;;;;516.80;84.67;;;;;;;;;;5048567;28;20045;-72
2021/12/16 09:01:39;;;;;;;532.17;85.07;;;;;;;;;;5072925;28;20446;-72
2021/12/16 09:04:05;;;;;;;583.87;94.77;;;;;;;;;;5088010;28;20044;-72
2021/12/16 09:06:31;;;;;;;534.70;84.10;;;;;;;;;;5081761;28;20077;-72
2021/12/16 09:08:59;;;;;;;569.33;86.00;;;;;;;;;;5084734;28;20602;-72
2021/12/16 09:11:26;;;;;;;403.17;65.70;;;;;;;;;;5079748;28;20567;-72
2021/12/16 09:13:54;;;;;;;491.80;74.00;;;;;;;;;;5055738;28;20044;-71
2021/12/16 09:16:21;;;;;;;561.90;79.33;;;;;;;;;;5048735;28;20075;-71
2021/12/16 09:18:48;;;;;;;459.93;66.90;;;;;;;;;;5062324;28;20044;-72
2021/12/16 09:21:16;;;;;;;457.47;68.47;;;;;;;;;;5067852;28;20127;-72
2021/12/16 09:23:44;;;;;;;477.83;71.23;;;;;;;;;;5087622;28;21279;-71
2021/12/16 09:26:10;;;;;;;512.40;77.33;;;;;;;;;;5085925;28;20032;-72
2021/12/16 09:28:37;;;;;;;451.07;68.50;;;;;;;;;;5068767;28;20052;-72
2021/12/16 09:31:04;;;;;;;430.73;65.13;;;;;;;;;;5082220;28;20040;-72
2021/12/16 09:33:30;;;;;;;438.27;67.00;;;;;;;;;;5060899;28;20521;-72
2021/12/16 09:35:58;;;;;;;514.10;76.13;;;;;;;;;;5060145;28;20122;-72
2021/12/16 09:38:24;;;;;;;371.50;60.57;;;;;;;;;;5085546;28;20040;-71
2021/12/16 09:40:53;;;;;;;277.10;46.03;;;;;;;;;;5051551;28;20406;-71
2021/12/16 09:43:21;;;;;;;292.20;50.47;;;;;;;;;;5060091;28;20089;-71
2021/12/16 09:45:47;;;;;;;361.40;60.10;;;;;;;;;;5088272;28;20220;-72
2021/12/16 09:48:13;;;;;;;256.13;46.63;;;;;;;;;;5061734;28;20471;-71
2021/12/16 09:50:39;;;;;;;223.07;44.00;;;;;;;;;;5076405;28;20135;-71
2021/12/16 09:53:09;;;;;;;248.97;44.13;;;;;;;;;;5072121;28;20132;-71
2021/12/16 09:55:35;;;;;;;255.23;47.23;;;;;;;;;;5061215;28;20040;-72
2021/12/16 09:58:02;;;;;;;201.13;39.67;;;;;;;;;;5068950;28;20505;-71
2021/12/16 10:00:29;;;;;;;307.57;53.77;;;;;;;;;;5053548;28;20040;-72
2021/12/16 10:02:55;;;;;;;312.20;56.60;;;;;;;;;;5085472;28;20043;-72
2021/12/16 10:05:22;;;;;;;388.17;61.60;;;;;;;;;;5091419;28;20036;-71
2021/12/16 10:07:48;;;;;;;217.70;44.30;;;;;;;;;;5073345;28;20055;-71
2021/12/16 10:10:23;;;;;;;186.10;40.50;;;;;;;;;;5073781;28;20171;-71
2021/12/16 10:12:51;;;;;;;193.27;42.90;;;;;;;;;;5073402;28;20207;-71
2021/12/16 10:18:07;;;;;;;128.07;33.80;;;;;;;;;;5091563;28;20047;-72
2021/12/16 10:20:36;;;;;;;206.63;41.33;;;;;;;;;;5070577;28;20121;-71
2021/12/16 10:23:07;;;;;;;188.47;40.83;;;;;;;;;;5070441;28;20099;-71
2021/12/16 10:25:41;;;;;;;161.07;32.40;;;;;;;;;;5086640;28;20054;-71
2021/12/16 10:28:13;;;;;;;203.00;40.33;;;;;;;;;;5082874;28;20043;-71
2021/12/16 10:30:43;;;;;;;168.17;33.27;;;;;;;;;;5087794;28;20490;-71
2021/12/16 10:33:11;;;;;;;222.87;38.70;;;;;;;;;;5071734;28;20051;-71
2021/12/16 10:35:37;;;;;;;210.47;37.40;;;;;;;;;;5053189;28;20506;-71
2021/12/16 10:38:05;;;;;;;291.70;43.40;;;;;;;;;;5070111;28;20585;-71
2021/12/16 10:40:33;;;;;;;246.27;41.17;;;;;;;;;;5069774;28;20048;-72
2021/12/16 10:43:01;;;;;;;187.10;37.07;;;;;;;;;;5070188;28;20522;-71
2021/12/16 10:45:29;;;;;;;141.53;27.83;;;;;;;;;;5071118;28;20037;-71
2021/12/16 10:48:09;;;;;;;174.37;33.17;;;;;;;;;;5071502;28;20135;-71
2021/12/16 10:50:53;;;;;;;184.20;29.93;;;;;;;;;;5078222;28;20080;-71
2021/12/16 10:53:38;;;;;;;272.93;35.33;;;;;;;;;;5056771;28;20048;-71
2021/12/16 10:56:04;;;;;;;333.73;43.87;;;;;;;;;;5073068;28;20785;-71
2021/12/16 10:58:47;;;;;;;282.30;39.70;;;;;;;;;;5073350;28;20048;-71
2021/12/16 11:01:34;;;;;;;79.45;20.95;;;;;;;;;;5073730;28;20048;-72
2021/12/16 11:04:01;;;;;;;318.77;39.67;;;;;;;;;;5072542;28;20056;-72
2021/12/16 11:06:34;;;;;;;360.50;41.13;;;;;;;;;;5073516;28;20506;-72
2021/12/16 11:09:19;;;;;;;170.53;26.37;;;;;;;;;;5072882;28;20040;-72
2021/12/16 11:11:46;;;;;;;264.27;36.80;;;;;;;;;;5090616;28;20055;-71
2021/12/16 11:14:12;;;;;;;173.37;26.67;;;;;;;;;;5056127;28;20052;-71
2021/12/16 11:16:38;;;;;;;108.53;22.53;;;;;;;;;;5073005;28;20048;-71
2021/12/16 11:19:06;;;;;;;142.57;22.40;;;;;;;;;;5091071;28;20091;-71
2021/12/16 11:21:40;;;;;;;101.80;24.50;;;;;;;;;;5072947;28;20754;-71
2021/12/16 11:27:37;;;;;;;90.17;20.93;;;;;;;;;;5087901;28;20611;-71
2021/12/16 11:30:21;;;;;;;44.00;15.63;;;;;;;;;;5090557;28;20047;-71
2021/12/16 11:46:30;;;;;;;37.87;16.77;;;;;;;;;;5090408;28;20042;-71
2021/12/16 11:48:58;;;;;;;23.43;14.50;;;;;;;;;;5072198;28;20479;-72
2021/12/16 11:51:32;;;;;;;33.10;15.83;;;;;;;;;;5090215;28;20390;-71
2021/12/16 11:54:00;;;;;;;27.30;16.80;;;;;;;;;;5072306;28;20490;-72
2021/12/16 11:56:45;;;;;;;45.10;18.03;;;;;;;;;;5072325;28;20050;-71
2021/12/16 11:59:12;;;;;;;70.40;20.47;;;;;;;;;;5090159;28;20052;-71
2021/12/16 12:01:39;;;;;;;69.00;18.47;;;;;;;;;;5090035;28;20054;-71
2021/12/16 12:04:11;;;;;;;108.43;21.50;;;;;;;;;;5072281;28;20048;-71
2021/12/16 12:06:37;;;;;;;55.60;19.13;;;;;;;;;;5089564;28;20048;-71
2021/12/16 12:09:05;;;;;;;96.23;21.63;;;;;;;;;;5072272;28;20044;-71
2021/12/16 12:11:34;;;;;;;104.20;21.23;;;;;;;;;;5072267;28;20044;-72
2021/12/16 12:14:02;;;;;;;84.80;21.40;;;;;;;;;;5071685;28;20040;-71
2021/12/16 12:16:35;;;;;;;114.97;25.00;;;;;;;;;;5089037;28;20071;-71
2021/12/16 12:19:03;;;;;;;125.57;24.83;;;;;;;;;;5090142;28;20564;-71
2021/12/16 12:21:29;;;;;;;73.53;21.83;;;;;;;;;;5089647;28;20055;-71
2021/12/16 12:23:58;;;;;;;91.70;22.57;;;;;;;;;;5071034;28;20056;-71
2021/12/16 12:26:25;;;;;;;86.63;23.93;;;;;;;;;;5071010;28;20055;-71
2021/12/16 12:28:53;;;;;;;141.47;27.50;;;;;;;;;;5089569;28;20047;-71
2021/12/16 12:31:21;;;;;;;75.10;24.57;;;;;;;;;;5071139;28;20059;-71
2021/12/16 12:33:47;;;;;;;67.10;21.40;;;;;;;;;;5089147;28;20135;-70
2021/12/16 12:36:14;;;;;;;61.33;21.87;;;;;;;;;;5071285;28;20075;-71
2021/12/16 12:38:40;;;;;;;84.57;23.20;;;;;;;;;;5070944;28;20062;-71
2021/12/16 12:41:07;;;;;;;85.70;25.43;;;;;;;;;;5089204;28;20048;-70
2021/12/16 12:43:34;;;;;;;43.87;19.33;;;;;;;;;;5089350;28;20058;-71
2021/12/16 12:46:01;;;;;;;95.07;25.30;;;;;;;;;;5089191;28;20040;-70
2021/12/16 12:48:28;;;;;;;108.67;25.87;;;;;;;;;;5088889;28;20090;-71
2021/12/16 12:50:57;;;;;;;60.87;21.13;;;;;;;;;;5088726;28;20040;-71
2021/12/16 12:53:32;;;;;;;82.20;22.90;;;;;;;;;;5088982;28;20043;-71
2021/12/16 12:56:07;;;;;;;68.80;21.17;;;;;;;;;;5054094;28;20058;-70
2021/12/16 12:58:34;;;;;;;77.30;22.80;;;;;;;;;;5089042;28;20448;-71
2021/12/16 13:01:02;;;;;;;103.93;23.27;;;;;;;;;;5089059;28;20113;-71
2021/12/16 13:03:30;;;;;;;139.70;25.70;;;;;;;;;;5088517;28;20035;-71
2021/12/16 13:05:59;;;;;;;82.03;23.50;;;;;;;;;;5068283;28;20547;-71
2021/12/16 13:08:27;;;;;;;68.20;20.63;;;;;;;;;;5053504;28;20039;-71
2021/12/16 13:10:57;;;;;;;115.73;25.93;;;;;;;;;;5089153;28;20442;-71
2021/12/16 13:27:00;;;;;;;85.13;25.37;;;;;;;;;;5088358;28;20087;-71
2021/12/16 13:29:37;;;;;;;181.43;32.33;;;;;;;;;;5070434;28;20130;-70
2021/12/16 13:32:22;;;;;;;95.73;26.13;;;;;;;;;;5088624;28;20151;-70
2021/12/16 13:35:05;;;;;;;257.57;35.10;;;;;;;;;;5087398;28;20070;-71
2021/12/16 13:37:34;;;;;;;148.40;26.92;;;;;;;;;;5088028;28;20052;-71
2021/12/16 13:40:03;;;;;;;158.13;29.17;;;;;;;;;;5088014;28;20387;-71
2021/12/16 13:42:41;;;;;;;149.93;26.40;;;;;;;;;;5070480;28;20052;-71
2021/12/16 13:45:22;;;;;;;79.10;21.83;;;;;;;;;;5088336;28;20119;-70
2021/12/16 14:01:57;;;;;;;151.80;24.57;;;;;;;;;;5088087;28;19924;-70
2021/12/16 14:05:17;;;;;;;197.90;27.73;;;;;;;;;;5049998;28;20613;-70
2021/12/16 14:10:11;;;;;;;245.17;28.60;;;;;;;;;;5060632;28;20514;-70
2021/12/16 14:15:28;;;;;;;118.90;19.83;;;;;;;;;;5086766;28;20056;-70
2021/12/16 14:23:31;;;;;;;267.13;32.08;;;;;;;;;;5087192;28;20040;-70
2021/12/16 14:26:22;;;;;;;142.95;21.20;;;;;;;;;;5086620;28;20113;-70
2021/12/16 14:39:46;;;;;;;298.17;35.83;;;;;;;;;;5066770;28;20075;-70
2021/12/16 14:45:43;;;;;;;326.20;40.33;;;;;;;;;;5085586;28;20060;-70
2021/12/16 14:48:21;;;;;;;380.53;44.17;;;;;;;;;;5087317;28;20429;-70
2021/12/16 14:50:50;;;;;;;323.23;39.70;;;;;;;;;;5072960;28;20498;-71
2021/12/16 14:53:39;;;;;;;300.23;36.47;;;;;;;;;;5071331;28;20059;-70
2021/12/16 14:56:05;;;;;;;325.83;38.70;;;;;;;;;;5065378;28;20110;-70
2021/12/16 14:58:32;;;;;;;215.13;31.63;;;;;;;;;;5085674;28;20525;-70
2021/12/16 15:01:10;;;;;;;251.77;33.63;;;;;;;;;;5076207;28;20048;-71
2021/12/16 15:03:39;;;;;;;294.60;38.67;;;;;;;;;;5081686;28;20070;-71
2021/12/16 15:06:07;;;;;;;255.10;33.50;;;;;;;;;;5065283;28;20142;-70
2021/12/16 15:11:39;;;;;;;149.10;21.80;;;;;;;;;;5069904;28;20055;-71
2021/12/16 15:14:20;;;;;;;207.50;30.13;;;;;;;;;;5071031;28;20052;-71
2021/12/16 15:36:37;;;;;;;298.83;33.93;;;;;;;;;;5089160;28;20051;-70
2021/12/16 15:44:46;;;;;;;263.10;32.47;;;;;;;;;;5071575;28;20048;-71
2021/12/16 15:47:13;;;;;;;391.67;43.23;;;;;;;;;;5089164;28;20497;-70
2021/12/16 15:49:39;;;;;;;330.70;37.93;;;;;;;;;;5090358;28;20044;-71
2021/12/16 15:52:05;;;;;;;296.70;36.47;;;;;;;;;;5089312;28;20036;-70
2021/12/16 15:54:38;;;;;;;314.43;40.70;;;;;;;;;;5072152;28;20044;-70
2021/12/16 15:57:05;;;;;;;240.35;34.58;;;;;;;;;;5088437;28;20100;-70
2021/12/16 15:59:31;;;;;;;313.37;40.77;;;;;;;;;;5089284;28;20080;-70
2021/12/16 16:01:58;;;;;;;386.80;43.87;;;;;;;;;;5072290;28;20140;-70
2021/12/16 16:04:26;;;;;;;349.33;40.07;;;;;;;;;;5071355;28;20047;-70
2021/12/16 16:07:06;;;;;;;260.20;36.30;;;;;;;;;;5068868;28;20036;-70
2021/12/16 16:09:38;;;;;;;403.97;46.23;;;;;;;;;;5089773;28;20387;-70
2021/12/16 16:12:05;;;;;;;330.47;38.33;;;;;;;;;;5090447;28;20044;-70
2021/12/16 16:14:32;;;;;;;303.07;38.63;;;;;;;;;;5085645;28;20075;-70
2021/12/16 16:17:00;;;;;;;393.87;45.73;;;;;;;;;;5079577;28;20048;-70
2021/12/16 16:19:28;;;;;;;369.80;45.83;;;;;;;;;;5080006;28;20127;-70
2021/12/16 16:21:55;;;;;;;364.83;45.27;;;;;;;;;;5080099;28;20498;-71
2021/12/16 16:24:23;;;;;;;385.77;45.27;;;;;;;;;;5082241;28;20040;-71
2021/12/16 16:26:52;;;;;;;429.97;49.43;;;;;;;;;;5067509;28;20055;-70
2021/12/16 16:29:22;;;;;;;366.23;45.93;;;;;;;;;;5082507;28;20035;-71
2021/12/16 16:31:49;;;;;;;467.80;52.83;;;;;;;;;;5060367;28;20068;-70
2021/12/16 16:34:18;;;;;;;312.90;39.33;;;;;;;;;;5058270;28;20068;-71
2021/12/16 16:36:49;;;;;;;396.13;48.00;;;;;;;;;;5083781;28;20147;-71
2021/12/16 16:39:20;;;;;;;354.83;44.93;;;;;;;;;;5060471;28;20063;-71
2021/12/16 16:41:47;;;;;;;368.63;43.70;;;;;;;;;;5082399;28;20040;-71
2021/12/16 16:44:15;;;;;;;450.97;51.63;;;;;;;;;;5068927;28;20466;-70
2021/12/16 16:46:56;;;;;;;348.23;44.67;;;;;;;;;;5083323;28;20117;-71
2021/12/16 16:49:27;;;;;;;389.07;48.27;;;;;;;;;;5069067;28;20061;-71
2021/12/16 16:51:55;;;;;;;334.87;44.47;;;;;;;;;;5063233;28;20071;-71
2021/12/16 16:54:26;;;;;;;436.17;52.47;;;;;;;;;;5081870;28;20032;-71
2021/12/16 16:57:00;;;;;;;440.57;52.17;;;;;;;;;;5061725;28;20783;-71
2021/12/16 16:59:36;;;;;;;361.98;46.65;;;;;;;;;;5069863;28;20181;-71
2021/12/16 17:02:13;;;;;;;284.47;42.30;;;;;;;;;;5053602;28;20048;-71
2021/12/16 17:04:39;;;;;;;386.50;50.43;;;;;;;;;;5087245;28;20047;-71
2021/12/16 17:07:05;;;;;;;382.80;51.00;;;;;;;;;;5054470;28;20040;-71
2021/12/16 17:09:33;;;;;;;638.30;82.03;;;;;;;;;;5088401;28;20048;-75
2021/12/16 17:11:59;;;;;;;515.37;60.93;;;;;;;;;;5069172;28;20482;-71
2021/12/16 17:14:35;;;;;;;403.30;52.00;;;;;;;;;;5088701;28;20058;-71
2021/12/16 17:20:11;;;;;;;392.33;49.43;;;;;;;;;;5065748;28;20783;-71
2021/12/16 17:22:43;;;;;;;413.10;55.03;;;;;;;;;;5069123;28;20049;-71
2021/12/16 17:25:10;;;;;;;308.90;44.07;;;;;;;;;;5050558;28;20048;-71
2021/12/16 17:27:38;;;;;;;567.70;71.43;;;;;;;;;;5034353;28;20052;-71
2021/12/16 17:30:16;;;;;;;421.13;53.00;;;;;;;;;;5074340;28;20048;-71
2021/12/16 17:32:43;;;;;;;351.37;46.70;;;;;;;;;;5071824;28;20089;-71
2021/12/16 17:35:12;;;;;;;318.87;44.90;;;;;;;;;;5088631;28;20059;-70
2021/12/16 17:37:40;;;;;;;329.23;44.10;;;;;;;;;;5070027;28;20051;-71
2021/12/16 17:40:08;;;;;;;396.53;53.37;;;;;;;;;;5088968;28;20048;-71
2021/12/16 17:42:36;;;;;;;326.33;46.67;;;;;;;;;;5088265;28;20071;-71
2021/12/16 17:45:09;;;;;;;397.77;50.53;;;;;;;;;;5070721;28;20525;-71
2021/12/16 17:47:36;;;;;;;336.20;45.25;;;;;;;;;;5069472;28;20545;-71
2021/12/16 17:50:04;;;;;;;316.70;45.07;;;;;;;;;;5069700;28;20054;-70
2021/12/16 17:52:32;;;;;;;408.83;51.67;;;;;;;;;;5069663;28;20044;-70
2021/12/16 17:55:00;;;;;;;367.37;47.57;;;;;;;;;;5067195;28;20071;-71
2021/12/16 17:57:32;;;;;;;407.40;50.63;;;;;;;;;;5067286;28;20036;-72
2021/12/16 17:59:59;;;;;;;345.43;44.97;;;;;;;;;;5087046;28;20444;-71
2021/12/16 18:02:26;;;;;;;336.00;47.60;;;;;;;;;;5087325;28;20044;-71
2021/12/16 18:04:55;;;;;;;359.33;48.47;;;;;;;;;;5088583;28;20044;-71
2021/12/16 18:07:21;;;;;;;359.73;48.80;;;;;;;;;;5088996;28;20067;-71
2021/12/16 18:09:47;;;;;;;174.63;33.43;;;;;;;;;;5053666;28;20052;-72
2021/12/16 18:12:13;;;;;;;265.47;40.80;;;;;;;;;;5088948;28;20097;-72
2021/12/16 18:14:45;;;;;;;203.23;37.40;;;;;;;;;;5070687;28;20051;-72
2021/12/16 18:17:13;;;;;;;292.90;42.70;;;;;;;;;;5088161;28;20060;-72
2021/12/16 18:19:45;;;;;;;287.07;57.90;;;;;;;;;;5070213;28;20046;-72
2021/12/16 18:22:17;;;;;;;294.87;49.63;;;;;;;;;;5073702;28;20062;-72
2021/12/16 18:24:43;;;;;;;358.97;48.07;;;;;;;;;;5057778;28;20044;-71
2021/12/16 18:27:17;;;;;;;263.33;44.40;;;;;;;;;;5074401;28;20463;-71
2021/12/16 18:29:43;;;;;;;277.67;43.75;;;;;;;;;;5073969;28;20497;-71
2021/12/16 18:32:09;;;;;;;283.53;42.47;;;;;;;;;;5073787;28;20393;-71
2021/12/16 18:34:35;;;;;;;278.47;43.30;;;;;;;;;;5074379;28;20055;-71